Canyon City, Oregon
Current Conditions -  °F | °C
As of 10:15 PM on Tuesday 25 Nov 2014 (Local Time) from KGCD Reporting Station
Clear Clear  
Wind Chill: 44°   Ceiling: Unl
Heat Index: 47°   Visibility: 10mi
Dew Point: 38°   Wind: 7mph
Humidity: 72%   Direction: 220°SW
Pressure: 30.3"   Gusts: NA
Location:  44.39°N, 118.95°W
Report Text: KGCD 260615Z AUTO 22006KT 10SM CLR 08/04 A3030 RMK AO2 T00830036
Loading
Personal Weather Stations






























Interactive Weather Map New forecast layout! Learn more

10-Day Weather Forecast

Advertisements
Track Severe Weather on mobile